Brothers Way — ERZX — position and weather

sailwx.info

Track history (hours):
 
Tides and Currents Weather Stations Pressure Air Temp Water Temp Dewpoint Dewpoint Depression Visibility Wind Speed Wind Dir Waves Ship Positions

Brothers Way

Last reported at 2018-Apr-04 07:23 UTC. Time now 2018-Apr-23 21:28 UTC.
Position N 42°55' E 028°52'.
Warning: this ship's position is 19 days out of date.

Length 105 m; draft 6.5 m.

Type: Cargo ship. MMSI: 214182624.

Date/timePositionNaut miles runAvg speedWind from/ knotsBaromVisibWave heightAir tempDewpointWater temp
2018-Apr-04 07:23N 42°55' E 028°52'2 6.5
2018-Apr-04 07:00N 42°57' E 028°52'9 6.8
2018-Apr-04 05:36N 43°07' E 028°51'2 6.9
2018-Apr-04 05:19N 43°09' E 028°50'3 6.8
2018-Apr-04 04:55N 43°11' E 028°50'3 6.6
2018-Apr-04 04:30N 43°14' E 028°50'3 6.6
2018-Apr-04 04:00N 43°17' E 028°49'3 6.6
2018-Apr-04 03:30N 43°21' E 028°49'3 6.7
2018-Apr-04 03:00N 43°24' E 028°48'3 6.7
2018-Apr-04 02:30N 43°27' E 028°48'3 6.7
2018-Apr-04 02:00N 43°31' E 028°47'3 6.7
2018-Apr-04 01:30N 43°34' E 028°47'3 6.7
2018-Apr-04 01:00N 43°37' E 028°47'3 6.7
2018-Apr-04 00:30N 43°41' E 028°46'3 6.7
2018-Apr-03 23:59N 43°44' E 028°46'3 6.7
2018-Apr-03 23:30N 43°47' E 028°45'3 6.8
2018-Apr-03 23:00N 43°51' E 028°45'3 6.8
2018-Apr-03 22:30N 43°54' E 028°44'3 6.6
2018-Apr-03 22:00N 43°57' E 028°44'3 6.6
2018-Apr-03 21:30N 44°01' E 028°43'3 6.5
2018-Apr-03 21:00N 44°04' E 028°43'3 6.6
2018-Apr-03 20:29N 44°07' E 028°41'3 5.3
2018-Apr-03 20:01N 44°09' E 028°39'0 0.3
2018-Apr-03 19:30N 44°09' E 028°39'0 0.0
2018-Apr-03 18:59N 44°09' E 028°39'0 0.0
2018-Apr-03 18:29N 44°09' E 028°39'0 0.0
2018-Apr-03 17:59N 44°09' E 028°39'0 0.0
2018-Apr-03 17:29N 44°09' E 028°39'0 0.0
2018-Apr-03 16:56N 44°09' E 028°39'0 0.0
2018-Apr-03 16:29N 44°09' E 028°39'0 0.0
2018-Apr-03 15:59N 44°09' E 028°39'0 0.0
2018-Apr-03 15:29N 44°09' E 028°39'0 0.0
2018-Apr-03 14:59N 44°09' E 028°39'0 0.0
2018-Apr-03 14:29N 44°09' E 028°39'0 0.0
2018-Apr-03 13:59N 44°09' E 028°39'0 0.0
2018-Apr-03 13:29N 44°09' E 028°39'0 0.0
2018-Apr-03 12:59N 44°09' E 028°39'0 0.0
2018-Apr-03 12:29N 44°09' E 028°39'0 0.0
2018-Apr-03 11:59N 44°09' E 028°39'0 0.0
2018-Apr-03 11:29N 44°09' E 028°39'0 0.0
2018-Apr-03 10:59N 44°09' E 028°39'0 0.0
2018-Apr-03 10:29N 44°09' E 028°39'0 0.0
2018-Apr-03 09:59N 44°09' E 028°39'0 0.0
2018-Apr-03 09:29N 44°09' E 028°39'0 0.0
2018-Apr-03 08:59N 44°09' E 028°39'0 0.0
2018-Apr-03 08:29N 44°09' E 028°39'0 0.0
2018-Apr-03 07:59N 44°09' E 028°39'0 0.0
2018-Apr-03 07:29N 44°09' E 028°39'0 0.0
2018-Apr-03 06:59N 44°09' E 028°39'0 0.0
2018-Apr-03 06:29N 44°09' E 028°39'0 0.0
2018-Apr-03 05:59N 44°09' E 028°39'0 0.0
2018-Apr-03 05:29N 44°09' E 028°39'0 0.0
2018-Apr-03 04:58N 44°09' E 028°39'0 0.0
2018-Apr-03 04:28N 44°09' E 028°39'0 0.0
2018-Apr-03 03:58N 44°09' E 028°39'0 0.0
2018-Apr-03 03:28N 44°09' E 028°39'0 0.0
2018-Apr-03 02:58N 44°09' E 028°39'0 0.0
2018-Apr-03 02:28N 44°09' E 028°39'0 0.0
2018-Apr-03 01:58N 44°09' E 028°39'0 0.0
2018-Apr-03 01:28N 44°09' E 028°39'0 0.0
2018-Apr-03 00:58N 44°09' E 028°39'0 0.0
2018-Apr-03 00:28N 44°09' E 028°39'0 0.0
2018-Apr-02 23:58N 44°09' E 028°39'0 0.0
2018-Apr-02 23:28N 44°09' E 028°39'0 0.0
2018-Apr-02 22:58N 44°09' E 028°39'0 0.0
2018-Apr-02 22:28N 44°09' E 028°39'0 0.0
2018-Apr-02 21:58N 44°09' E 028°39'0 0.0
2018-Apr-02 21:28N 44°09' E 028°39'0 0.0
2018-Apr-02 20:58N 44°09' E 028°39'0 0.0
2018-Apr-02 20:28N 44°09' E 028°39'0 0.0
2018-Apr-02 19:58N 44°09' E 028°39'0 0.0
2018-Apr-02 19:28N 44°09' E 028°39'0 0.0
2018-Apr-02 18:58N 44°09' E 028°39'0 0.0
2018-Apr-02 18:28N 44°09' E 028°39'0 0.0
2018-Apr-02 17:58N 44°09' E 028°39'0 0.0
2018-Apr-02 17:28N 44°09' E 028°39'0 0.0
2018-Apr-02 16:58N 44°09' E 028°39'0 0.0
2018-Apr-02 16:28N 44°09' E 028°39'0 0.0
2018-Apr-02 15:58N 44°09' E 028°39'0 0.0
2018-Apr-02 15:28N 44°09' E 028°39'0 0.0
2018-Apr-02 14:58N 44°09' E 028°39'0 0.0
2018-Apr-02 14:28N 44°09' E 028°39'0 0.0
2018-Apr-02 13:58N 44°09' E 028°39'0 0.0
2018-Apr-02 13:28N 44°09' E 028°39'0 0.0
2018-Apr-02 12:58N 44°09' E 028°39'0 0.0
2018-Apr-02 12:28N 44°09' E 028°39'0 0.0
2018-Apr-02 11:58N 44°09' E 028°39'0 0.0
2018-Apr-02 11:28N 44°09' E 028°39'0 0.0
2018-Apr-02 10:58N 44°09' E 028°39'0 0.0
2018-Apr-02 10:28N 44°09' E 028°39'0 0.0
2018-Apr-02 09:58N 44°09' E 028°39'0 0.0
2018-Apr-02 09:28N 44°09' E 028°39'0 0.0
2018-Apr-02 08:58N 44°09' E 028°39'0 0.0
2018-Apr-02 08:28N 44°09' E 028°39'0 0.0
2018-Apr-02 07:58N 44°09' E 028°39'0 0.0
2018-Apr-02 07:28N 44°09' E 028°39'0 0.0
2018-Apr-02 06:58N 44°09' E 028°39'0 0.0
2018-Apr-02 06:28N 44°09' E 028°39'0 0.0
2018-Apr-02 05:58N 44°09' E 028°39'0 0.0
2018-Apr-02 05:28N 44°09' E 028°39'0 0.0
2018-Apr-02 04:58N 44°09' E 028°39'0 0.0
2018-Apr-02 04:28N 44°09' E 028°39'0 0.0
2018-Apr-02 03:58N 44°09' E 028°39'0 0.0
2018-Apr-02 03:28N 44°09' E 028°39'0 0.0
2018-Apr-02 02:58N 44°09' E 028°39'0 0.0
2018-Apr-02 02:28N 44°09' E 028°39'0 0.0
2018-Apr-02 01:58N 44°09' E 028°39'0 0.0
2018-Apr-02 01:28N 44°09' E 028°39'0 0.0
2018-Apr-02 00:58N 44°09' E 028°39'0 0.0
2018-Apr-02 00:28N 44°09' E 028°39'0 0.0
2018-Apr-01 23:58N 44°09' E 028°39'0 0.0
2018-Apr-01 23:28N 44°09' E 028°39'0 0.0
2018-Apr-01 22:58N 44°09' E 028°39'0 0.0
2018-Apr-01 22:28N 44°09' E 028°39'0 0.0
2018-Apr-01 21:58N 44°09' E 028°39'0 0.0
2018-Apr-01 21:28N 44°09' E 028°39'0 0.0
2018-Apr-01 20:58N 44°09' E 028°39'0 0.0
2018-Apr-01 20:28N 44°09' E 028°39'0 0.0
2018-Apr-01 19:58N 44°09' E 028°39'0 0.0
2018-Apr-01 19:28N 44°09' E 028°39'0 0.0
2018-Apr-01 18:58N 44°09' E 028°39'0 0.0
2018-Apr-01 18:28N 44°09' E 028°39'0 0.0
2018-Apr-01 17:58N 44°09' E 028°39'0 0.0
2018-Apr-01 17:28N 44°09' E 028°39'0 0.0
2018-Apr-01 16:58N 44°09' E 028°39'0 0.0
2018-Apr-01 16:28N 44°09' E 028°39'0 0.0
2018-Apr-01 16:01N 44°09' E 028°39'0 0.0
2018-Apr-01 15:31N 44°09' E 028°39'0 0.0
2018-Apr-01 15:01N 44°09' E 028°39'0 0.0
2018-Apr-01 14:30N 44°09' E 028°39'0 0.0
2018-Apr-01 14:00N 44°09' E 028°39'0 0.0
2018-Apr-01 13:30N 44°09' E 028°39'0 0.0
2018-Apr-01 13:00N 44°09' E 028°39'0 0.0
2018-Apr-01 12:30N 44°09' E 028°39'0 0.0
2018-Apr-01 12:00N 44°09' E 028°39'0 0.0
2018-Apr-01 11:30N 44°09' E 028°39'0 0.0
2018-Apr-01 11:00N 44°09' E 028°39'0 0.0
2018-Apr-01 10:27N 44°09' E 028°39'0 0.0
2018-Apr-01 10:00N 44°09' E 028°39'0 0.0
2018-Apr-01 09:30N 44°09' E 028°39'0 0.0
2018-Apr-01 09:00N 44°09' E 028°39'0 0.0
2018-Apr-01 08:30N 44°09' E 028°39'0 0.0
2018-Apr-01 08:00N 44°09' E 028°39'0 0.0
2018-Apr-01 07:30N 44°09' E 028°39'0 0.0
2018-Apr-01 07:00N 44°09' E 028°39'0 0.0
2018-Apr-01 06:30N 44°09' E 028°39'0 0.0
2018-Apr-01 06:00N 44°09' E 028°39'0 0.0
2018-Apr-01 05:30N 44°09' E 028°39'0 0.0
2018-Apr-01 05:00N 44°09' E 028°39'0 0.0
2018-Apr-01 04:30N 44°09' E 028°39'0 0.0
2018-Apr-01 04:00N 44°09' E 028°39'0 0.0
2018-Apr-01 03:30N 44°09' E 028°39'0 0.0
2018-Apr-01 03:00N 44°09' E 028°39'0 0.0
2018-Apr-01 02:30N 44°09' E 028°39'0 0.0
2018-Apr-01 02:00N 44°09' E 028°39'0 0.0
2018-Apr-01 01:30N 44°09' E 028°39'0 0.0
2018-Apr-01 01:00N 44°09' E 028°39'0 0.0
2018-Apr-01 00:30N 44°09' E 028°39'0 0.0
2018-Apr-01 00:00N 44°09' E 028°39'0 0.0
2018-Mar-31 23:30N 44°09' E 028°39'0 0.0
2018-Mar-31 23:00N 44°09' E 028°39'0 0.0
2018-Mar-31 22:30N 44°09' E 028°39'0 0.0
2018-Mar-31 22:00N 44°09' E 028°39'0 0.0
2018-Mar-31 21:30N 44°09' E 028°39'0 0.0
2018-Mar-31 21:00N 44°09' E 028°39'0 0.0
2018-Mar-31 20:30N 44°09' E 028°39'0 0.0
2018-Mar-31 20:00N 44°09' E 028°39'0 0.0
2018-Mar-31 19:30N 44°09' E 028°39'0 0.0
2018-Mar-31 19:00N 44°09' E 028°39'0 0.0
2018-Mar-31 18:30N 44°09' E 028°39'0 0.0
2018-Mar-31 18:00N 44°09' E 028°39'0 0.0
2018-Mar-31 17:30N 44°09' E 028°39'0 0.0
2018-Mar-31 17:00N 44°09' E 028°39'0 0.0
2018-Mar-31 16:30N 44°09' E 028°39'0 0.0
2018-Mar-31 16:00N 44°09' E 028°39'0 0.0
2018-Mar-31 15:30N 44°09' E 028°39'0 0.0
2018-Mar-31 15:00N 44°09' E 028°39'0 0.0
2018-Mar-31 14:30N 44°09' E 028°39'0 0.0
2018-Mar-31 14:00N 44°09' E 028°39'0 0.0
2018-Mar-31 13:30N 44°09' E 028°39'0 0.0
2018-Mar-31 13:00N 44°09' E 028°39'0 0.0
2018-Mar-31 12:30N 44°09' E 028°39'0 0.0
2018-Mar-31 12:00N 44°09' E 028°39'0 0.0
2018-Mar-31 11:30N 44°09' E 028°39'0 0.0
2018-Mar-31 11:00N 44°09' E 028°39'0 0.0
2018-Mar-31 10:30N 44°09' E 028°39'0 0.0
2018-Mar-31 10:00N 44°09' E 028°39'0 0.0
2018-Mar-31 09:30N 44°09' E 028°39'0 0.0
2018-Mar-31 09:00N 44°09' E 028°39'0 0.0
2018-Mar-31 08:30N 44°09' E 028°39'0 0.0
2018-Mar-31 08:00N 44°09' E 028°39'0 0.0
2018-Mar-31 07:30N 44°09' E 028°39'0 0.0
2018-Mar-31 07:00N 44°09' E 028°39'0 0.0
2018-Mar-31 06:30N 44°09' E 028°39'0 0.0
2018-Mar-31 06:00N 44°09' E 028°39'0 0.0
2018-Mar-31 05:30N 44°09' E 028°39'0 0.0
2018-Mar-31 05:00N 44°09' E 028°39'0 0.0
2018-Mar-31 04:30N 44°09' E 028°39'0 0.0
2018-Mar-31 04:00N 44°09' E 028°39'0 0.0
2018-Mar-31 03:30N 44°09' E 028°39'0 0.0
2018-Mar-31 03:00N 44°09' E 028°39'0 0.0
2018-Mar-31 02:30N 44°09' E 028°39'0 0.0
2018-Mar-31 02:00N 44°09' E 028°39'0 0.0
2018-Mar-31 01:30N 44°09' E 028°39'0 0.0
2018-Mar-31 01:00N 44°09' E 028°39'0 0.0
2018-Mar-31 00:30N 44°09' E 028°39'0 0.0
2018-Mar-30 23:59N 44°09' E 028°39'0 0.0
2018-Mar-30 23:29N 44°09' E 028°39'0 0.0
2018-Mar-30 22:59N 44°09' E 028°39'0 0.0
2018-Mar-30 22:29N 44°09' E 028°39'0 0.0
2018-Mar-30 21:59N 44°09' E 028°39'0 0.0
2018-Mar-30 21:29N 44°09' E 028°39'0 0.0
2018-Mar-30 20:59N 44°09' E 028°39'0 0.0
2018-Mar-30 20:29N 44°09' E 028°39'0 0.0
2018-Mar-30 19:59N 44°09' E 028°39'0 0.0
2018-Mar-30 19:26N 44°09' E 028°39'0 0.0
2018-Mar-30 18:59N 44°09' E 028°39'0 0.0
2018-Mar-30 18:29N 44°09' E 028°39'0 0.0
2018-Mar-30 17:59N 44°09' E 028°39'0 0.0
2018-Mar-30 17:29N 44°09' E 028°39'0 0.0
2018-Mar-30 16:50N 44°09' E 028°39'0 0.0
2018-Mar-30 16:29N 44°09' E 028°39'0 0.0
2018-Mar-30 15:59N 44°09' E 028°39'0 0.0
2018-Mar-30 15:29N 44°09' E 028°39'0 0.0
2018-Mar-30 14:59N 44°09' E 028°39'0 0.0
2018-Mar-30 14:29N 44°09' E 028°39'0 0.0
2018-Mar-30 13:59N 44°09' E 028°39'0 0.0
2018-Mar-30 13:29N 44°09' E 028°39'0 0.0
2018-Mar-30 12:59N 44°09' E 028°39'0 0.0
2018-Mar-30 12:29N 44°09' E 028°39'0 0.0
2018-Mar-30 11:59N 44°09' E 028°39'0 0.0
2018-Mar-30 11:29N 44°09' E 028°39'0 0.0
2018-Mar-30 10:59N 44°09' E 028°39'0 0.0
2018-Mar-30 10:29N 44°09' E 028°39'0 0.0
2018-Mar-30 09:59N 44°09' E 028°39'0 0.0
2018-Mar-30 09:29N 44°09' E 028°39'0 0.0
2018-Mar-30 08:59N 44°09' E 028°39'0 0.0
2018-Mar-30 08:29N 44°09' E 028°39'0 0.0
2018-Mar-30 07:59N 44°09' E 028°39'0 0.0
2018-Mar-30 07:29N 44°09' E 028°39'0 0.0
2018-Mar-30 06:59N 44°09' E 028°39'0 0.0
2018-Mar-30 06:29N 44°09' E 028°39'0 0.0
2018-Mar-30 05:56N 44°09' E 028°39'0 0.0
2018-Mar-30 05:29N 44°09' E 028°39'0 0.0
2018-Mar-30 04:59N 44°09' E 028°39'0 0.0
2018-Mar-30 04:29N 44°09' E 028°39'0 0.0
2018-Mar-30 03:59N 44°09' E 028°39'0 0.0
2018-Mar-30 03:29N 44°09' E 028°39'0 0.0
2018-Mar-30 02:59N 44°09' E 028°39'0 0.0
2018-Mar-30 02:29N 44°09' E 028°39'0 0.0
2018-Mar-30 01:59N 44°09' E 028°39'0 0.0
2018-Mar-30 01:29N 44°09' E 028°39'0 0.0
2018-Mar-30 00:59N 44°09' E 028°39'0 0.0
2018-Mar-30 00:29N 44°09' E 028°39'0 0.0
2018-Mar-29 23:59N 44°09' E 028°39'0 0.0
2018-Mar-29 23:29N 44°09' E 028°39'0 0.0
2018-Mar-29 22:59N 44°09' E 028°39'0 0.0
2018-Mar-29 22:29N 44°09' E 028°39'0 0.0
2018-Mar-29 21:59N 44°09' E 028°39'0 0.0
2018-Mar-29 21:29N 44°09' E 028°39'0 0.0
2018-Mar-29 20:59N 44°09' E 028°39'0 0.0
2018-Mar-29 20:29N 44°09' E 028°39'0 0.0
2018-Mar-29 19:59N 44°09' E 028°39'0 0.0
2018-Mar-29 19:29N 44°09' E 028°39'0 0.0
2018-Mar-29 18:59N 44°09' E 028°39'0 0.0
2018-Mar-29 18:29N 44°09' E 028°39'0 0.0
2018-Mar-29 17:59N 44°09' E 028°39'0 0.0
2018-Mar-29 17:29N 44°09' E 028°39'0 0.0
2018-Mar-29 16:59N 44°09' E 028°39'0 0.0
2018-Mar-29 16:23N 44°09' E 028°39'0 0.0
2018-Mar-29 15:59N 44°09' E 028°39'0 0.0
2018-Mar-29 15:29N 44°09' E 028°39'0 0.0
2018-Mar-29 14:59N 44°09' E 028°39'0 0.0
2018-Mar-29 14:29N 44°09' E 028°39'0 0.0
2018-Mar-29 13:59N 44°09' E 028°39'0 0.0
2018-Mar-29 13:29N 44°09' E 028°39'0 0.0
2018-Mar-29 12:59N 44°09' E 028°39'0 0.0
2018-Mar-29 12:29N 44°09' E 028°39'0 0.0
2018-Mar-29 11:59N 44°09' E 028°39'0 0.0
2018-Mar-29 11:29N 44°09' E 028°39'0 0.0
2018-Mar-29 10:59N 44°09' E 028°39'0 0.0
2018-Mar-29 10:26N 44°09' E 028°39'0 0.0
2018-Mar-29 09:58N 44°09' E 028°39'0 0.0
2018-Mar-29 09:28N 44°09' E 028°39'0 0.0
2018-Mar-29 08:58N 44°09' E 028°39'0 0.0
2018-Mar-29 08:28N 44°09' E 028°39'0 0.0
2018-Mar-29 07:58N 44°09' E 028°39'0 0.0
2018-Mar-29 07:28N 44°09' E 028°39'0 0.0
2018-Mar-29 06:58N 44°09' E 028°39'0 0.0
2018-Mar-29 06:28N 44°09' E 028°39'0 0.0
2018-Mar-29 05:58N 44°09' E 028°39'0 0.0
2018-Mar-29 05:28N 44°09' E 028°39'0 0.0
2018-Mar-29 04:58N 44°09' E 028°39'0 0.0
2018-Mar-29 04:28N 44°09' E 028°39'0 0.0
2018-Mar-29 03:58N 44°09' E 028°39'0 0.0
2018-Mar-29 03:28N 44°09' E 028°39'0 0.0
2018-Mar-29 02:58N 44°09' E 028°39'0 0.0
2018-Mar-29 02:28N 44°09' E 028°39'0 0.0
2018-Mar-29 01:58N 44°09' E 028°39'0 0.0
2018-Mar-29 01:28N 44°09' E 028°39'0 0.0
2018-Mar-29 00:58N 44°09' E 028°39'0 0.0
2018-Mar-29 00:28N 44°09' E 028°39'0 0.0
2018-Mar-28 23:58N 44°09' E 028°39'0 0.0
2018-Mar-28 23:28N 44°09' E 028°39'0 0.0
2018-Mar-28 22:58N 44°09' E 028°39'0 0.0
2018-Mar-28 22:28N 44°09' E 028°39'0 0.0
2018-Mar-28 21:58N 44°09' E 028°39'0 0.0
2018-Mar-28 21:28N 44°09' E 028°39'0 0.0
2018-Mar-28 20:58N 44°09' E 028°39'0 0.0
2018-Mar-28 20:28N 44°09' E 028°39'0 0.0
2018-Mar-28 19:58N 44°09' E 028°39'0 0.0
2018-Mar-28 19:28N 44°09' E 028°39'0 0.0
2018-Mar-28 18:58N 44°09' E 028°39'0 0.0
2018-Mar-28 18:28N 44°09' E 028°39'0 0.0
2018-Mar-28 17:58N 44°09' E 028°39'0 0.0
2018-Mar-28 17:28N 44°09' E 028°39'0 0.0
2018-Mar-28 16:58N 44°09' E 028°39'0 0.0
2018-Mar-28 16:28N 44°09' E 028°39'0 0.0
2018-Mar-28 15:58N 44°09' E 028°39'0 0.0
2018-Mar-28 15:28N 44°09' E 028°39'0 0.0
2018-Mar-28 14:58N 44°09' E 028°39'0 0.0
2018-Mar-28 14:28N 44°09' E 028°39'0 0.0
2018-Mar-28 13:58N 44°09' E 028°39'1 1.1
2018-Mar-28 13:28N 44°10' E 028°39'0 0.1
2018-Mar-28 12:58N 44°10' E 028°39'0 0.0
2018-Mar-28 12:28N 44°10' E 028°39'0 0.0
2018-Mar-28 11:58N 44°10' E 028°39'0 0.0
2018-Mar-28 11:28N 44°10' E 028°39'0 0.0
2018-Mar-28 10:58N 44°10' E 028°39'0 0.0
2018-Mar-28 10:28N 44°10' E 028°39'0 0.0
2018-Mar-28 09:58N 44°10' E 028°39'0 0.0
2018-Mar-28 09:28N 44°10' E 028°39'0 0.0
2018-Mar-28 08:58N 44°10' E 028°39'0 0.0
2018-Mar-28 08:28N 44°10' E 028°39'0 0.0
2018-Mar-28 07:58N 44°10' E 028°39'0 0.0
2018-Mar-28 07:28N 44°10' E 028°39'0 0.0
2018-Mar-28 06:58N 44°10' E 028°39'0 0.0
2018-Mar-28 06:28N 44°10' E 028°39'0 0.0
2018-Mar-28 05:58N 44°10' E 028°39'0 0.0
2018-Mar-28 05:28N 44°10' E 028°39'0 0.0
2018-Mar-28 04:58N 44°10' E 028°39'0 0.0
2018-Mar-28 04:28N 44°10' E 028°39'0 0.0
2018-Mar-28 03:58N 44°10' E 028°39'0 0.0
2018-Mar-28 03:28N 44°10' E 028°39'0 0.0
2018-Mar-28 02:58N 44°10' E 028°39'0 0.0
2018-Mar-28 02:28N 44°10' E 028°39'0 0.0
2018-Mar-28 01:55N 44°10' E 028°39'0 0.0
2018-Mar-28 01:28N 44°10' E 028°39'0 0.0
2018-Mar-28 00:58N 44°10' E 028°39'0 0.0
2018-Mar-28 00:28N 44°10' E 028°39'0 0.0
2018-Mar-27 23:58N 44°10' E 028°39'0 0.0
2018-Mar-27 23:28N 44°10' E 028°39'0 0.0
2018-Mar-27 23:01N 44°10' E 028°39'0 0.0
2018-Mar-27 22:31N 44°10' E 028°39'0 0.0
2018-Mar-27 22:01N 44°10' E 028°39'0 0.0
2018-Mar-27 21:30N 44°10' E 028°39'0 0.0
2018-Mar-27 21:00N 44°10' E 028°39'0 0.0
2018-Mar-27 20:30N 44°10' E 028°39'0 0.0
2018-Mar-27 20:00N 44°10' E 028°39'0 0.0
2018-Mar-27 19:30N 44°10' E 028°39'0 0.0
2018-Mar-27 19:00N 44°10' E 028°39'0 0.0
2018-Mar-27 18:30N 44°10' E 028°39'0 0.0
2018-Mar-27 18:00N 44°10' E 028°39'0 0.0
2018-Mar-27 17:30N 44°10' E 028°39'0 0.0
2018-Mar-27 17:00N 44°10' E 028°39'0 0.0
2018-Mar-27 16:30N 44°10' E 028°39'0 0.0
2018-Mar-27 16:00N 44°10' E 028°39'0 0.0
2018-Mar-27 15:30N 44°10' E 028°39'0 0.0
2018-Mar-27 15:00N 44°10' E 028°39'0 0.0
2018-Mar-27 14:30N 44°10' E 028°39'0 0.0
2018-Mar-27 14:00N 44°10' E 028°39'0 0.0
2018-Mar-27 13:30N 44°10' E 028°39'0 0.0
2018-Mar-27 13:00N 44°10' E 028°39'0 0.0
2018-Mar-27 12:30N 44°10' E 028°39'0 0.0
2018-Mar-27 12:00N 44°10' E 028°39'0 0.0
2018-Mar-27 11:30N 44°10' E 028°39'0 0.0
2018-Mar-27 11:00N 44°10' E 028°39'0 0.0
2018-Mar-27 10:30N 44°10' E 028°39'0 0.0
2018-Mar-27 09:54N 44°10' E 028°39'0 0.0
2018-Mar-27 09:30N 44°10' E 028°39'0 0.0
2018-Mar-27 09:00N 44°10' E 028°39'0 0.0
2018-Mar-27 08:30N 44°10' E 028°39'0 0.0
2018-Mar-27 08:00N 44°10' E 028°39'0 0.0
2018-Mar-27 07:30N 44°10' E 028°39'0 0.0
2018-Mar-27 07:00N 44°10' E 028°39'0 0.0
2018-Mar-27 06:30N 44°10' E 028°39'0 0.0
2018-Mar-27 06:00N 44°10' E 028°39'0 0.0
2018-Mar-27 05:30N 44°10' E 028°39'0 0.0
2018-Mar-27 05:00N 44°10' E 028°39'0 0.0
2018-Mar-27 04:30N 44°10' E 028°39'0 0.0
2018-Mar-27 04:00N 44°10' E 028°39'0 0.0
2018-Mar-27 03:30N 44°10' E 028°39'0 0.0
2018-Mar-27 03:00N 44°10' E 028°39'0 0.0
2018-Mar-27 02:30N 44°10' E 028°39'0 0.0
2018-Mar-27 01:57N 44°10' E 028°39'0 0.0
2018-Mar-27 01:30N 44°10' E 028°39'0 0.0
2018-Mar-27 01:00N 44°10' E 028°39'0 0.0
2018-Mar-27 00:30N 44°10' E 028°39'0 0.0
2018-Mar-27 00:00N 44°10' E 028°39'0 0.0
2018-Mar-26 23:30N 44°10' E 028°39'0 0.0
2018-Mar-26 23:00N 44°10' E 028°39'0 0.0
2018-Mar-26 22:30N 44°10' E 028°39'0 0.0
2018-Mar-26 22:00N 44°10' E 028°39'0 0.0
2018-Mar-26 21:30N 44°10' E 028°39'0 0.0
2018-Mar-26 21:00N 44°10' E 028°39'0 0.0
2018-Mar-26 20:30N 44°10' E 028°39'0 0.0
2018-Mar-26 19:57N 44°10' E 028°39'0 0.0
2018-Mar-26 19:30N 44°10' E 028°39'0 0.0
2018-Mar-26 18:57N 44°10' E 028°39'0 0.0
2018-Mar-26 18:30N 44°10' E 028°39'0 0.0
2018-Mar-26 18:00N 44°10' E 028°39'0 0.0
2018-Mar-26 17:30N 44°10' E 028°39'0 0.0
2018-Mar-26 17:00N 44°10' E 028°39'0 0.0
2018-Mar-26 16:30N 44°10' E 028°39'0 0.0
2018-Mar-26 16:00N 44°10' E 028°39'0 0.0
2018-Mar-26 15:30N 44°10' E 028°39'0 0.0
2018-Mar-26 15:00N 44°10' E 028°39'0 0.0
2018-Mar-26 14:30N 44°10' E 028°39'0 0.0
2018-Mar-26 14:00N 44°10' E 028°39'0 0.0
2018-Mar-26 13:30N 44°10' E 028°39'0 0.0
2018-Mar-26 13:00N 44°10' E 028°39'0 0.0
2018-Mar-26 12:30N 44°10' E 028°39'0 0.0
2018-Mar-26 12:00N 44°10' E 028°39'0 0.0
2018-Mar-26 11:30N 44°10' E 028°39'0 0.0
2018-Mar-26 11:00N 44°10' E 028°39'0 0.0
2018-Mar-26 10:30N 44°10' E 028°39'0 0.0
2018-Mar-26 10:00N 44°10' E 028°39'0 0.0
2018-Mar-26 09:30N 44°10' E 028°39'0 0.0
2018-Mar-26 09:00N 44°10' E 028°39'0 0.0
2018-Mar-26 08:30N 44°10' E 028°39'0 0.0
2018-Mar-26 08:00N 44°10' E 028°39'0 0.0
2018-Mar-26 07:29N 44°10' E 028°39'0 0.0
2018-Mar-26 06:59N 44°10' E 028°39'0 0.0
2018-Mar-26 06:29N 44°10' E 028°39'0 0.0
2018-Mar-26 05:59N 44°10' E 028°39'0 0.0
2018-Mar-26 05:29N 44°10' E 028°39'0 0.0
2018-Mar-26 04:59N 44°10' E 028°39'0 0.0
2018-Mar-26 04:29N 44°10' E 028°39'0 0.0
2018-Mar-26 03:59N 44°10' E 028°39'0 0.0
2018-Mar-26 03:29N 44°10' E 028°39'0 0.0
2018-Mar-26 02:59N 44°10' E 028°39'0 0.0
2018-Mar-26 02:29N 44°10' E 028°39'0 0.0
2018-Mar-26 01:59N 44°10' E 028°39'0 0.0
2018-Mar-26 01:29N 44°10' E 028°39'0 0.0
2018-Mar-26 00:59N 44°10' E 028°39'0 0.0
2018-Mar-26 00:29N 44°10' E 028°39'0 0.0
2018-Mar-25 23:59N 44°10' E 028°39'0 0.0
2018-Mar-25 23:29N 44°10' E 028°39'0 0.0
2018-Mar-25 22:59N 44°10' E 028°39'0 0.0
2018-Mar-25 22:29N 44°10' E 028°39'0 0.0
2018-Mar-25 21:59N 44°10' E 028°39'0 0.0
2018-Mar-25 21:29N 44°10' E 028°39'0 0.0
2018-Mar-25 20:59N 44°10' E 028°39'0 0.0
2018-Mar-25 20:29N 44°10' E 028°39'0 0.0
2018-Mar-25 19:59N 44°10' E 028°39'0 0.0
2018-Mar-25 19:29N 44°10' E 028°39'0 0.0
2018-Mar-25 18:59N 44°10' E 028°39'0 0.0
2018-Mar-25 18:29N 44°10' E 028°39'0 0.0
2018-Mar-25 17:59N 44°10' E 028°39'0 0.0
2018-Mar-25 17:29N 44°10' E 028°39'0 0.0
2018-Mar-25 16:59N 44°10' E 028°39'0 0.0
2018-Mar-25 16:29N 44°10' E 028°39'0 0.0
2018-Mar-25 15:59N 44°10' E 028°39'0 0.0
2018-Mar-25 15:29N 44°10' E 028°39'0 0.0
2018-Mar-25 14:59N 44°10' E 028°39'0 0.0
2018-Mar-25 14:26N 44°10' E 028°39'0 0.0
2018-Mar-25 13:59N 44°10' E 028°39'0 0.0
2018-Mar-25 13:29N 44°10' E 028°39'0 0.0
2018-Mar-25 12:59N 44°10' E 028°39'0 0.0
2018-Mar-25 12:29N 44°10' E 028°39'0 0.0
2018-Mar-25 11:59N 44°10' E 028°39'0 0.0
2018-Mar-25 11:29N 44°10' E 028°39'0 0.0
2018-Mar-25 10:59N 44°10' E 028°39'0 0.0
2018-Mar-25 10:29N 44°10' E 028°39'0 0.0
2018-Mar-25 09:59N 44°10' E 028°39'0 0.0
2018-Mar-25 09:29N 44°10' E 028°39'0 0.0
2018-Mar-25 08:59N 44°10' E 028°39'0 0.0
2018-Mar-25 08:29N 44°10' E 028°39'0 0.0
2018-Mar-25 07:59N 44°10' E 028°39'0 0.0
2018-Mar-25 07:29N 44°10' E 028°39'  
Track history (hours):
 
Tides and Currents Weather Stations Pressure Air Temp Water Temp Dewpoint Dewpoint Depression Visibility Wind Speed Wind Dir Waves Ship Positions

Brothers Way

Last reported at 2018-Apr-04 07:23 UTC. Time now 2018-Apr-23 21:28 UTC.
Position N 42°55' E 028°52'.
Warning: this ship's position is 19 days out of date.

Length 105 m; draft 6.5 m.

Type: Cargo ship. MMSI: 214182624.

Date/timePositionNaut miles runAvg speedWind from/ knotsBaromVisibWave heightAir tempDewpointWater temp
2018-Apr-04 07:23N 42°55' E 028°52'2 6.5
2018-Apr-04 07:00N 42°57' E 028°52'9 6.8
2018-Apr-04 05:36N 43°07' E 028°51'2 6.9
2018-Apr-04 05:19N 43°09' E 028°50'3 6.8
2018-Apr-04 04:55N 43°11' E 028°50'3 6.6
2018-Apr-04 04:30N 43°14' E 028°50'3 6.6
2018-Apr-04 04:00N 43°17' E 028°49'3 6.6
2018-Apr-04 03:30N 43°21' E 028°49'3 6.7
2018-Apr-04 03:00N 43°24' E 028°48'3 6.7
2018-Apr-04 02:30N 43°27' E 028°48'3 6.7
2018-Apr-04 02:00N 43°31' E 028°47'3 6.7
2018-Apr-04 01:30N 43°34' E 028°47'3 6.7
2018-Apr-04 01:00N 43°37' E 028°47'3 6.7
2018-Apr-04 00:30N 43°41' E 028°46'3 6.7
2018-Apr-03 23:59N 43°44' E 028°46'3 6.7
2018-Apr-03 23:30N 43°47' E 028°45'3 6.8
2018-Apr-03 23:00N 43°51' E 028°45'3 6.8
2018-Apr-03 22:30N 43°54' E 028°44'3 6.6
2018-Apr-03 22:00N 43°57' E 028°44'3 6.6
2018-Apr-03 21:30N 44°01' E 028°43'3 6.5
2018-Apr-03 21:00N 44°04' E 028°43'3 6.6
2018-Apr-03 20:29N 44°07' E 028°41'3 5.3
2018-Apr-03 20:01N 44°09' E 028°39'0 0.3
2018-Apr-03 19:30N 44°09' E 028°39'0 0.0
2018-Apr-03 18:59N 44°09' E 028°39'0 0.0
2018-Apr-03 18:29N 44°09' E 028°39'0 0.0
2018-Apr-03 17:59N 44°09' E 028°39'0 0.0
2018-Apr-03 17:29N 44°09' E 028°39'0 0.0
2018-Apr-03 16:56N 44°09' E 028°39'0 0.0
2018-Apr-03 16:29N 44°09' E 028°39'0 0.0
2018-Apr-03 15:59N 44°09' E 028°39'0 0.0
2018-Apr-03 15:29N 44°09' E 028°39'0 0.0
2018-Apr-03 14:59N 44°09' E 028°39'0 0.0
2018-Apr-03 14:29N 44°09' E 028°39'0 0.0
2018-Apr-03 13:59N 44°09' E 028°39'0 0.0
2018-Apr-03 13:29N 44°09' E 028°39'0 0.0
2018-Apr-03 12:59N 44°09' E 028°39'0 0.0
2018-Apr-03 12:29N 44°09' E 028°39'0 0.0
2018-Apr-03 11:59N 44°09' E 028°39'0 0.0
2018-Apr-03 11:29N 44°09' E 028°39'0 0.0
2018-Apr-03 10:59N 44°09' E 028°39'0 0.0
2018-Apr-03 10:29N 44°09' E 028°39'0 0.0
2018-Apr-03 09:59N 44°09' E 028°39'0 0.0
2018-Apr-03 09:29N 44°09' E 028°39'0 0.0
2018-Apr-03 08:59N 44°09' E 028°39'0 0.0
2018-Apr-03 08:29N 44°09' E 028°39'0 0.0
2018-Apr-03 07:59N 44°09' E 028°39'0 0.0
2018-Apr-03 07:29N 44°09' E 028°39'0 0.0
2018-Apr-03 06:59N 44°09' E 028°39'0 0.0
2018-Apr-03 06:29N 44°09' E 028°39'0 0.0
2018-Apr-03 05:59N 44°09' E 028°39'0 0.0
2018-Apr-03 05:29N 44°09' E 028°39'0 0.0
2018-Apr-03 04:58N 44°09' E 028°39'0 0.0
2018-Apr-03 04:28N 44°09' E 028°39'0 0.0
2018-Apr-03 03:58N 44°09' E 028°39'0 0.0
2018-Apr-03 03:28N 44°09' E 028°39'0 0.0
2018-Apr-03 02:58N 44°09' E 028°39'0 0.0
2018-Apr-03 02:28N 44°09' E 028°39'0 0.0
2018-Apr-03 01:58N 44°09' E 028°39'0 0.0
2018-Apr-03 01:28N 44°09' E 028°39'0 0.0
2018-Apr-03 00:58N 44°09' E 028°39'0 0.0
2018-Apr-03 00:28N 44°09' E 028°39'0 0.0
2018-Apr-02 23:58N 44°09' E 028°39'0 0.0
2018-Apr-02 23:28N 44°09' E 028°39'0 0.0
2018-Apr-02 22:58N 44°09' E 028°39'0 0.0
2018-Apr-02 22:28N 44°09' E 028°39'0 0.0
2018-Apr-02 21:58N 44°09' E 028°39'0 0.0
2018-Apr-02 21:28N 44°09' E 028°39'0 0.0
2018-Apr-02 20:58N 44°09' E 028°39'0 0.0
2018-Apr-02 20:28N 44°09' E 028°39'0 0.0
2018-Apr-02 19:58N 44°09' E 028°39'0 0.0
2018-Apr-02 19:28N 44°09' E 028°39'0 0.0
2018-Apr-02 18:58N 44°09' E 028°39'0 0.0
2018-Apr-02 18:28N 44°09' E 028°39'0 0.0
2018-Apr-02 17:58N 44°09' E 028°39'0 0.0
2018-Apr-02 17:28N 44°09' E 028°39'0 0.0
2018-Apr-02 16:58N 44°09' E 028°39'0 0.0
2018-Apr-02 16:28N 44°09' E 028°39'0 0.0
2018-Apr-02 15:58N 44°09' E 028°39'0 0.0
2018-Apr-02 15:28N 44°09' E 028°39'0 0.0
2018-Apr-02 14:58N 44°09' E 028°39'0 0.0
2018-Apr-02 14:28N 44°09' E 028°39'0 0.0
2018-Apr-02 13:58N 44°09' E 028°39'0 0.0
2018-Apr-02 13:28N 44°09' E 028°39'0 0.0
2018-Apr-02 12:58N 44°09' E 028°39'0 0.0
2018-Apr-02 12:28N 44°09' E 028°39'0 0.0
2018-Apr-02 11:58N 44°09' E 028°39'0 0.0
2018-Apr-02 11:28N 44°09' E 028°39'0 0.0
2018-Apr-02 10:58N 44°09' E 028°39'0 0.0
2018-Apr-02 10:28N 44°09' E 028°39'0 0.0
2018-Apr-02 09:58N 44°09' E 028°39'0 0.0
2018-Apr-02 09:28N 44°09' E 028°39'0 0.0
2018-Apr-02 08:58N 44°09' E 028°39'0 0.0
2018-Apr-02 08:28N 44°09' E 028°39'0 0.0
2018-Apr-02 07:58N 44°09' E 028°39'0 0.0
2018-Apr-02 07:28N 44°09' E 028°39'0 0.0
2018-Apr-02 06:58N 44°09' E 028°39'0 0.0
2018-Apr-02 06:28N 44°09' E 028°39'0 0.0
2018-Apr-02 05:58N 44°09' E 028°39'0 0.0
2018-Apr-02 05:28N 44°09' E 028°39'0 0.0
2018-Apr-02 04:58N 44°09' E 028°39'0 0.0
2018-Apr-02 04:28N 44°09' E 028°39'0 0.0
2018-Apr-02 03:58N 44°09' E 028°39'0 0.0
2018-Apr-02 03:28N 44°09' E 028°39'0 0.0
2018-Apr-02 02:58N 44°09' E 028°39'0 0.0
2018-Apr-02 02:28N 44°09' E 028°39'0 0.0
2018-Apr-02 01:58N 44°09' E 028°39'0 0.0
2018-Apr-02 01:28N 44°09' E 028°39'0 0.0
2018-Apr-02 00:58N 44°09' E 028°39'0 0.0
2018-Apr-02 00:28N 44°09' E 028°39'0 0.0
2018-Apr-01 23:58N 44°09' E 028°39'0 0.0
2018-Apr-01 23:28N 44°09' E 028°39'0 0.0
2018-Apr-01 22:58N 44°09' E 028°39'0 0.0
2018-Apr-01 22:28N 44°09' E 028°39'0 0.0
2018-Apr-01 21:58N 44°09' E 028°39'0 0.0
2018-Apr-01 21:28N 44°09' E 028°39'0 0.0
2018-Apr-01 20:58N 44°09' E 028°39'0 0.0
2018-Apr-01 20:28N 44°09' E 028°39'0 0.0
2018-Apr-01 19:58N 44°09' E 028°39'0 0.0
2018-Apr-01 19:28N 44°09' E 028°39'0 0.0
2018-Apr-01 18:58N 44°09' E 028°39'0 0.0
2018-Apr-01 18:28N 44°09' E 028°39'0 0.0
2018-Apr-01 17:58N 44°09' E 028°39'0 0.0
2018-Apr-01 17:28N 44°09' E 028°39'0 0.0
2018-Apr-01 16:58N 44°09' E 028°39'0 0.0
2018-Apr-01 16:28N 44°09' E 028°39'0 0.0
2018-Apr-01 16:01N 44°09' E 028°39'0 0.0
2018-Apr-01 15:31N 44°09' E 028°39'0 0.0
2018-Apr-01 15:01N 44°09' E 028°39'0 0.0
2018-Apr-01 14:30N 44°09' E 028°39'0 0.0
2018-Apr-01 14:00N 44°09' E 028°39'0 0.0
2018-Apr-01 13:30N 44°09' E 028°39'0 0.0
2018-Apr-01 13:00N 44°09' E 028°39'0 0.0
2018-Apr-01 12:30N 44°09' E 028°39'0 0.0
2018-Apr-01 12:00N 44°09' E 028°39'0 0.0
2018-Apr-01 11:30N 44°09' E 028°39'0 0.0
2018-Apr-01 11:00N 44°09' E 028°39'0 0.0
2018-Apr-01 10:27N 44°09' E 028°39'0 0.0
2018-Apr-01 10:00N 44°09' E 028°39'0 0.0
2018-Apr-01 09:30N 44°09' E 028°39'0 0.0
2018-Apr-01 09:00N 44°09' E 028°39'0 0.0
2018-Apr-01 08:30N 44°09' E 028°39'0 0.0
2018-Apr-01 08:00N 44°09' E 028°39'0 0.0
2018-Apr-01 07:30N 44°09' E 028°39'0 0.0
2018-Apr-01 07:00N 44°09' E 028°39'0 0.0
2018-Apr-01 06:30N 44°09' E 028°39'0 0.0
2018-Apr-01 06:00N 44°09' E 028°39'0 0.0
2018-Apr-01 05:30N 44°09' E 028°39'0 0.0
2018-Apr-01 05:00N 44°09' E 028°39'0 0.0
2018-Apr-01 04:30N 44°09' E 028°39'0 0.0
2018-Apr-01 04:00N 44°09' E 028°39'0 0.0
2018-Apr-01 03:30N 44°09' E 028°39'0 0.0
2018-Apr-01 03:00N 44°09' E 028°39'0 0.0
2018-Apr-01 02:30N 44°09' E 028°39'0 0.0
2018-Apr-01 02:00N 44°09' E 028°39'0 0.0
2018-Apr-01 01:30N 44°09' E 028°39'0 0.0
2018-Apr-01 01:00N 44°09' E 028°39'0 0.0
2018-Apr-01 00:30N 44°09' E 028°39'0 0.0
2018-Apr-01 00:00N 44°09' E 028°39'0 0.0
2018-Mar-31 23:30N 44°09' E 028°39'0 0.0
2018-Mar-31 23:00N 44°09' E 028°39'0 0.0
2018-Mar-31 22:30N 44°09' E 028°39'0 0.0
2018-Mar-31 22:00N 44°09' E 028°39'0 0.0
2018-Mar-31 21:30N 44°09' E 028°39'0 0.0
2018-Mar-31 21:00N 44°09' E 028°39'0 0.0
2018-Mar-31 20:30N 44°09' E 028°39'0 0.0
2018-Mar-31 20:00N 44°09' E 028°39'0 0.0
2018-Mar-31 19:30N 44°09' E 028°39'0 0.0
2018-Mar-31 19:00N 44°09' E 028°39'0 0.0
2018-Mar-31 18:30N 44°09' E 028°39'0 0.0
2018-Mar-31 18:00N 44°09' E 028°39'0 0.0
2018-Mar-31 17:30N 44°09' E 028°39'0 0.0
2018-Mar-31 17:00N 44°09' E 028°39'0 0.0
2018-Mar-31 16:30N 44°09' E 028°39'0 0.0
2018-Mar-31 16:00N 44°09' E 028°39'0 0.0
2018-Mar-31 15:30N 44°09' E 028°39'0 0.0
2018-Mar-31 15:00N 44°09' E 028°39'0 0.0
2018-Mar-31 14:30N 44°09' E 028°39'0 0.0
2018-Mar-31 14:00N 44°09' E 028°39'0 0.0
2018-Mar-31 13:30N 44°09' E 028°39'0 0.0
2018-Mar-31 13:00N 44°09' E 028°39'0 0.0
2018-Mar-31 12:30N 44°09' E 028°39'0 0.0
2018-Mar-31 12:00N 44°09' E 028°39'0 0.0
2018-Mar-31 11:30N 44°09' E 028°39'0 0.0
2018-Mar-31 11:00N 44°09' E 028°39'0 0.0
2018-Mar-31 10:30N 44°09' E 028°39'0 0.0
2018-Mar-31 10:00N 44°09' E 028°39'0 0.0
2018-Mar-31 09:30N 44°09' E 028°39'0 0.0
2018-Mar-31 09:00N 44°09' E 028°39'0 0.0
2018-Mar-31 08:30N 44°09' E 028°39'0 0.0
2018-Mar-31 08:00N 44°09' E 028°39'0 0.0
2018-Mar-31 07:30N 44°09' E 028°39'0 0.0
2018-Mar-31 07:00N 44°09' E 028°39'0 0.0
2018-Mar-31 06:30N 44°09' E 028°39'0 0.0
2018-Mar-31 06:00N 44°09' E 028°39'0 0.0
2018-Mar-31 05:30N 44°09' E 028°39'0 0.0
2018-Mar-31 05:00N 44°09' E 028°39'0 0.0
2018-Mar-31 04:30N 44°09' E 028°39'0 0.0
2018-Mar-31 04:00N 44°09' E 028°39'0 0.0
2018-Mar-31 03:30N 44°09' E 028°39'0 0.0
2018-Mar-31 03:00N 44°09' E 028°39'0 0.0
2018-Mar-31 02:30N 44°09' E 028°39'0 0.0
2018-Mar-31 02:00N 44°09' E 028°39'0 0.0
2018-Mar-31 01:30N 44°09' E 028°39'0 0.0
2018-Mar-31 01:00N 44°09' E 028°39'0 0.0
2018-Mar-31 00:30N 44°09' E 028°39'0 0.0
2018-Mar-30 23:59N 44°09' E 028°39'0 0.0
2018-Mar-30 23:29N 44°09' E 028°39'0 0.0
2018-Mar-30 22:59N 44°09' E 028°39'0 0.0
2018-Mar-30 22:29N 44°09' E 028°39'0 0.0
2018-Mar-30 21:59N 44°09' E 028°39'0 0.0
2018-Mar-30 21:29N 44°09' E 028°39'0 0.0
2018-Mar-30 20:59N 44°09' E 028°39'0 0.0
2018-Mar-30 20:29N 44°09' E 028°39'0 0.0
2018-Mar-30 19:59N 44°09' E 028°39'0 0.0
2018-Mar-30 19:26N 44°09' E 028°39'0 0.0
2018-Mar-30 18:59N 44°09' E 028°39'0 0.0
2018-Mar-30 18:29N 44°09' E 028°39'0 0.0
2018-Mar-30 17:59N 44°09' E 028°39'0 0.0
2018-Mar-30 17:29N 44°09' E 028°39'0 0.0
2018-Mar-30 16:50N 44°09' E 028°39'0 0.0
2018-Mar-30 16:29N 44°09' E 028°39'0 0.0
2018-Mar-30 15:59N 44°09' E 028°39'0 0.0
2018-Mar-30 15:29N 44°09' E 028°39'0 0.0
2018-Mar-30 14:59N 44°09' E 028°39'0 0.0
2018-Mar-30 14:29N 44°09' E 028°39'0 0.0
2018-Mar-30 13:59N 44°09' E 028°39'0 0.0
2018-Mar-30 13:29N 44°09' E 028°39'0 0.0
2018-Mar-30 12:59N 44°09' E 028°39'0 0.0
2018-Mar-30 12:29N 44°09' E 028°39'0 0.0
2018-Mar-30 11:59N 44°09' E 028°39'0 0.0
2018-Mar-30 11:29N 44°09' E 028°39'0 0.0
2018-Mar-30 10:59N 44°09' E 028°39'0 0.0
2018-Mar-30 10:29N 44°09' E 028°39'0 0.0
2018-Mar-30 09:59N 44°09' E 028°39'0 0.0
2018-Mar-30 09:29N 44°09' E 028°39'0 0.0
2018-Mar-30 08:59N 44°09' E 028°39'0 0.0
2018-Mar-30 08:29N 44°09' E 028°39'0 0.0
2018-Mar-30 07:59N 44°09' E 028°39'0 0.0
2018-Mar-30 07:29N 44°09' E 028°39'0 0.0
2018-Mar-30 06:59N 44°09' E 028°39'0 0.0
2018-Mar-30 06:29N 44°09' E 028°39'0 0.0
2018-Mar-30 05:56N 44°09' E 028°39'0 0.0
2018-Mar-30 05:29N 44°09' E 028°39'0 0.0
2018-Mar-30 04:59N 44°09' E 028°39'0 0.0
2018-Mar-30 04:29N 44°09' E 028°39'0 0.0
2018-Mar-30 03:59N 44°09' E 028°39'0 0.0
2018-Mar-30 03:29N 44°09' E 028°39'0 0.0
2018-Mar-30 02:59N 44°09' E 028°39'0 0.0
2018-Mar-30 02:29N 44°09' E 028°39'0 0.0
2018-Mar-30 01:59N 44°09' E 028°39'0 0.0
2018-Mar-30 01:29N 44°09' E 028°39'0 0.0
2018-Mar-30 00:59N 44°09' E 028°39'0 0.0
2018-Mar-30 00:29N 44°09' E 028°39'0 0.0
2018-Mar-29 23:59N 44°09' E 028°39'0 0.0
2018-Mar-29 23:29N 44°09' E 028°39'0 0.0
2018-Mar-29 22:59N 44°09' E 028°39'0 0.0
2018-Mar-29 22:29N 44°09' E 028°39'0 0.0
2018-Mar-29 21:59N 44°09' E 028°39'0 0.0
2018-Mar-29 21:29N 44°09' E 028°39'0 0.0
2018-Mar-29 20:59N 44°09' E 028°39'0 0.0
2018-Mar-29 20:29N 44°09' E 028°39'0 0.0
2018-Mar-29 19:59N 44°09' E 028°39'0 0.0
2018-Mar-29 19:29N 44°09' E 028°39'0 0.0
2018-Mar-29 18:59N 44°09' E 028°39'0 0.0
2018-Mar-29 18:29N 44°09' E 028°39'0 0.0
2018-Mar-29 17:59N 44°09' E 028°39'0 0.0
2018-Mar-29 17:29N 44°09' E 028°39'0 0.0
2018-Mar-29 16:59N 44°09' E 028°39'0 0.0
2018-Mar-29 16:23N 44°09' E 028°39'0 0.0
2018-Mar-29 15:59N 44°09' E 028°39'0 0.0
2018-Mar-29 15:29N 44°09' E 028°39'0 0.0
2018-Mar-29 14:59N 44°09' E 028°39'0 0.0
2018-Mar-29 14:29N 44°09' E 028°39'0 0.0
2018-Mar-29 13:59N 44°09' E 028°39'0 0.0
2018-Mar-29 13:29N 44°09' E 028°39'0 0.0
2018-Mar-29 12:59N 44°09' E 028°39'0 0.0
2018-Mar-29 12:29N 44°09' E 028°39'0 0.0
2018-Mar-29 11:59N 44°09' E 028°39'0 0.0
2018-Mar-29 11:29N 44°09' E 028°39'0 0.0
2018-Mar-29 10:59N 44°09' E 028°39'0 0.0
2018-Mar-29 10:26N 44°09' E 028°39'0 0.0
2018-Mar-29 09:58N 44°09' E 028°39'0 0.0
2018-Mar-29 09:28N 44°09' E 028°39'0 0.0
2018-Mar-29 08:58N 44°09' E 028°39'0 0.0
2018-Mar-29 08:28N 44°09' E 028°39'0 0.0
2018-Mar-29 07:58N 44°09' E 028°39'0 0.0
2018-Mar-29 07:28N 44°09' E 028°39'0 0.0
2018-Mar-29 06:58N 44°09' E 028°39'0 0.0
2018-Mar-29 06:28N 44°09' E 028°39'0 0.0
2018-Mar-29 05:58N 44°09' E 028°39'0 0.0
2018-Mar-29 05:28N 44°09' E 028°39'0 0.0
2018-Mar-29 04:58N 44°09' E 028°39'0 0.0
2018-Mar-29 04:28N 44°09' E 028°39'0 0.0
2018-Mar-29 03:58N 44°09' E 028°39'0 0.0
2018-Mar-29 03:28N 44°09' E 028°39'0 0.0
2018-Mar-29 02:58N 44°09' E 028°39'0 0.0
2018-Mar-29 02:28N 44°09' E 028°39'0 0.0
2018-Mar-29 01:58N 44°09' E 028°39'0 0.0
2018-Mar-29 01:28N 44°09' E 028°39'0 0.0
2018-Mar-29 00:58N 44°09' E 028°39'0 0.0
2018-Mar-29 00:28N 44°09' E 028°39'0 0.0
2018-Mar-28 23:58N 44°09' E 028°39'0 0.0
2018-Mar-28 23:28N 44°09' E 028°39'0 0.0
2018-Mar-28 22:58N 44°09' E 028°39'0 0.0
2018-Mar-28 22:28N 44°09' E 028°39'0 0.0
2018-Mar-28 21:58N 44°09' E 028°39'0 0.0
2018-Mar-28 21:28N 44°09' E 028°39'0 0.0
2018-Mar-28 20:58N 44°09' E 028°39'0 0.0
2018-Mar-28 20:28N 44°09' E 028°39'0 0.0
2018-Mar-28 19:58N 44°09' E 028°39'0 0.0
2018-Mar-28 19:28N 44°09' E 028°39'0 0.0
2018-Mar-28 18:58N 44°09' E 028°39'0 0.0
2018-Mar-28 18:28N 44°09' E 028°39'0 0.0
2018-Mar-28 17:58N 44°09' E 028°39'0 0.0
2018-Mar-28 17:28N 44°09' E 028°39'0 0.0
2018-Mar-28 16:58N 44°09' E 028°39'0 0.0
2018-Mar-28 16:28N 44°09' E 028°39'0 0.0
2018-Mar-28 15:58N 44°09' E 028°39'0 0.0
2018-Mar-28 15:28N 44°09' E 028°39'0 0.0
2018-Mar-28 14:58N 44°09' E 028°39'0 0.0
2018-Mar-28 14:28N 44°09' E 028°39'0 0.0
2018-Mar-28 13:58N 44°09' E 028°39'1 1.1
2018-Mar-28 13:28N 44°10' E 028°39'0 0.1
2018-Mar-28 12:58N 44°10' E 028°39'0 0.0
2018-Mar-28 12:28N 44°10' E 028°39'0 0.0
2018-Mar-28 11:58N 44°10' E 028°39'0 0.0
2018-Mar-28 11:28N 44°10' E 028°39'0 0.0
2018-Mar-28 10:58N 44°10' E 028°39'0 0.0
2018-Mar-28 10:28N 44°10' E 028°39'0 0.0
2018-Mar-28 09:58N 44°10' E 028°39'0 0.0
2018-Mar-28 09:28N 44°10' E 028°39'0 0.0
2018-Mar-28 08:58N 44°10' E 028°39'0 0.0
2018-Mar-28 08:28N 44°10' E 028°39'0 0.0
2018-Mar-28 07:58N 44°10' E 028°39'0 0.0
2018-Mar-28 07:28N 44°10' E 028°39'0 0.0
2018-Mar-28 06:58N 44°10' E 028°39'0 0.0
2018-Mar-28 06:28N 44°10' E 028°39'0 0.0
2018-Mar-28 05:58N 44°10' E 028°39'0 0.0
2018-Mar-28 05:28N 44°10' E 028°39'0 0.0
2018-Mar-28 04:58N 44°10' E 028°39'0 0.0
2018-Mar-28 04:28N 44°10' E 028°39'0 0.0
2018-Mar-28 03:58N 44°10' E 028°39'0 0.0
2018-Mar-28 03:28N 44°10' E 028°39'0 0.0
2018-Mar-28 02:58N 44°10' E 028°39'0 0.0
2018-Mar-28 02:28N 44°10' E 028°39'0 0.0
2018-Mar-28 01:55N 44°10' E 028°39'0 0.0
2018-Mar-28 01:28N 44°10' E 028°39'0 0.0
2018-Mar-28 00:58N 44°10' E 028°39'0 0.0
2018-Mar-28 00:28N 44°10' E 028°39'0 0.0
2018-Mar-27 23:58N 44°10' E 028°39'0 0.0
2018-Mar-27 23:28N 44°10' E 028°39'0 0.0
2018-Mar-27 23:01N 44°10' E 028°39'0 0.0
2018-Mar-27 22:31N 44°10' E 028°39'0 0.0
2018-Mar-27 22:01N 44°10' E 028°39'0 0.0
2018-Mar-27 21:30N 44°10' E 028°39'0 0.0
2018-Mar-27 21:00N 44°10' E 028°39'0 0.0
2018-Mar-27 20:30N 44°10' E 028°39'0 0.0
2018-Mar-27 20:00N 44°10' E 028°39'0 0.0
2018-Mar-27 19:30N 44°10' E 028°39'0 0.0
2018-Mar-27 19:00N 44°10' E 028°39'0 0.0
2018-Mar-27 18:30N 44°10' E 028°39'0 0.0
2018-Mar-27 18:00N 44°10' E 028°39'0 0.0
2018-Mar-27 17:30N 44°10' E 028°39'0 0.0
2018-Mar-27 17:00N 44°10' E 028°39'0 0.0
2018-Mar-27 16:30N 44°10' E 028°39'0 0.0
2018-Mar-27 16:00N 44°10' E 028°39'0 0.0
2018-Mar-27 15:30N 44°10' E 028°39'0 0.0
2018-Mar-27 15:00N 44°10' E 028°39'0 0.0
2018-Mar-27 14:30N 44°10' E 028°39'0 0.0
2018-Mar-27 14:00N 44°10' E 028°39'0 0.0
2018-Mar-27 13:30N 44°10' E 028°39'0 0.0
2018-Mar-27 13:00N 44°10' E 028°39'0 0.0
2018-Mar-27 12:30N 44°10' E 028°39'0 0.0
2018-Mar-27 12:00N 44°10' E 028°39'0 0.0
2018-Mar-27 11:30N 44°10' E 028°39'0 0.0
2018-Mar-27 11:00N 44°10' E 028°39'0 0.0
2018-Mar-27 10:30N 44°10' E 028°39'0 0.0
2018-Mar-27 09:54N 44°10' E 028°39'0 0.0
2018-Mar-27 09:30N 44°10' E 028°39'0 0.0
2018-Mar-27 09:00N 44°10' E 028°39'0 0.0
2018-Mar-27 08:30N 44°10' E 028°39'0 0.0
2018-Mar-27 08:00N 44°10' E 028°39'0 0.0
2018-Mar-27 07:30N 44°10' E 028°39'0 0.0
2018-Mar-27 07:00N 44°10' E 028°39'0 0.0
2018-Mar-27 06:30N 44°10' E 028°39'0 0.0
2018-Mar-27 06:00N 44°10' E 028°39'0 0.0
2018-Mar-27 05:30N 44°10' E 028°39'0 0.0
2018-Mar-27 05:00N 44°10' E 028°39'0 0.0
2018-Mar-27 04:30N 44°10' E 028°39'0 0.0
2018-Mar-27 04:00N 44°10' E 028°39'0 0.0
2018-Mar-27 03:30N 44°10' E 028°39'0 0.0
2018-Mar-27 03:00N 44°10' E 028°39'0 0.0
2018-Mar-27 02:30N 44°10' E 028°39'0 0.0
2018-Mar-27 01:57N 44°10' E 028°39'0 0.0
2018-Mar-27 01:30N 44°10' E 028°39'0 0.0
2018-Mar-27 01:00N 44°10' E 028°39'0 0.0
2018-Mar-27 00:30N 44°10' E 028°39'0 0.0
2018-Mar-27 00:00N 44°10' E 028°39'0 0.0
2018-Mar-26 23:30N 44°10' E 028°39'0 0.0
2018-Mar-26 23:00N 44°10' E 028°39'0 0.0
2018-Mar-26 22:30N 44°10' E 028°39'0 0.0
2018-Mar-26 22:00N 44°10' E 028°39'0 0.0
2018-Mar-26 21:30N 44°10' E 028°39'0 0.0
2018-Mar-26 21:00N 44°10' E 028°39'0 0.0
2018-Mar-26 20:30N 44°10' E 028°39'0 0.0
2018-Mar-26 19:57N 44°10' E 028°39'0 0.0
2018-Mar-26 19:30N 44°10' E 028°39'0 0.0
2018-Mar-26 18:57N 44°10' E 028°39'0 0.0
2018-Mar-26 18:30N 44°10' E 028°39'0 0.0
2018-Mar-26 18:00N 44°10' E 028°39'0 0.0
2018-Mar-26 17:30N 44°10' E 028°39'0 0.0
2018-Mar-26 17:00N 44°10' E 028°39'0 0.0
2018-Mar-26 16:30N 44°10' E 028°39'0 0.0
2018-Mar-26 16:00N 44°10' E 028°39'0 0.0
2018-Mar-26 15:30N 44°10' E 028°39'0 0.0
2018-Mar-26 15:00N 44°10' E 028°39'0 0.0
2018-Mar-26 14:30N 44°10' E 028°39'0 0.0
2018-Mar-26 14:00N 44°10' E 028°39'0 0.0
2018-Mar-26 13:30N 44°10' E 028°39'0 0.0
2018-Mar-26 13:00N 44°10' E 028°39'0 0.0
2018-Mar-26 12:30N 44°10' E 028°39'0 0.0
2018-Mar-26 12:00N 44°10' E 028°39'0 0.0
2018-Mar-26 11:30N 44°10' E 028°39'0 0.0
2018-Mar-26 11:00N 44°10' E 028°39'0 0.0
2018-Mar-26 10:30N 44°10' E 028°39'0 0.0
2018-Mar-26 10:00N 44°10' E 028°39'0 0.0
2018-Mar-26 09:30N 44°10' E 028°39'0 0.0
2018-Mar-26 09:00N 44°10' E 028°39'0 0.0
2018-Mar-26 08:30N 44°10' E 028°39'0 0.0
2018-Mar-26 08:00N 44°10' E 028°39'0 0.0
2018-Mar-26 07:29N 44°10' E 028°39'0 0.0
2018-Mar-26 06:59N 44°10' E 028°39'0 0.0
2018-Mar-26 06:29N 44°10' E 028°39'0 0.0
2018-Mar-26 05:59N 44°10' E 028°39'0 0.0
2018-Mar-26 05:29N 44°10' E 028°39'0 0.0
2018-Mar-26 04:59N 44°10' E 028°39'0 0.0
2018-Mar-26 04:29N 44°10' E 028°39'0 0.0
2018-Mar-26 03:59N 44°10' E 028°39'0 0.0
2018-Mar-26 03:29N 44°10' E 028°39'0 0.0
2018-Mar-26 02:59N 44°10' E 028°39'0 0.0
2018-Mar-26 02:29N 44°10' E 028°39'0 0.0
2018-Mar-26 01:59N 44°10' E 028°39'0 0.0
2018-Mar-26 01:29N 44°10' E 028°39'0 0.0
2018-Mar-26 00:59N 44°10' E 028°39'0 0.0
2018-Mar-26 00:29N 44°10' E 028°39'0 0.0
2018-Mar-25 23:59N 44°10' E 028°39'0 0.0
2018-Mar-25 23:29N 44°10' E 028°39'0 0.0
2018-Mar-25 22:59N 44°10' E 028°39'0 0.0
2018-Mar-25 22:29N 44°10' E 028°39'0 0.0
2018-Mar-25 21:59N 44°10' E 028°39'0 0.0
2018-Mar-25 21:29N 44°10' E 028°39'0 0.0
2018-Mar-25 20:59N 44°10' E 028°39'0 0.0
2018-Mar-25 20:29N 44°10' E 028°39'0 0.0
2018-Mar-25 19:59N 44°10' E 028°39'0 0.0
2018-Mar-25 19:29N 44°10' E 028°39'0 0.0
2018-Mar-25 18:59N 44°10' E 028°39'0 0.0
2018-Mar-25 18:29N 44°10' E 028°39'0 0.0
2018-Mar-25 17:59N 44°10' E 028°39'0 0.0
2018-Mar-25 17:29N 44°10' E 028°39'0 0.0
2018-Mar-25 16:59N 44°10' E 028°39'0 0.0
2018-Mar-25 16:29N 44°10' E 028°39'0 0.0
2018-Mar-25 15:59N 44°10' E 028°39'0 0.0
2018-Mar-25 15:29N 44°10' E 028°39'0 0.0
2018-Mar-25 14:59N 44°10' E 028°39'0 0.0
2018-Mar-25 14:26N 44°10' E 028°39'0 0.0
2018-Mar-25 13:59N 44°10' E 028°39'0 0.0
2018-Mar-25 13:29N 44°10' E 028°39'0 0.0
2018-Mar-25 12:59N 44°10' E 028°39'0 0.0
2018-Mar-25 12:29N 44°10' E 028°39'0 0.0
2018-Mar-25 11:59N 44°10' E 028°39'0 0.0
2018-Mar-25 11:29N 44°10' E 028°39'0 0.0
2018-Mar-25 10:59N 44°10' E 028°39'0 0.0
2018-Mar-25 10:29N 44°10' E 028°39'0 0.0
2018-Mar-25 09:59N 44°10' E 028°39'0 0.0
2018-Mar-25 09:29N 44°10' E 028°39'0 0.0
2018-Mar-25 08:59N 44°10' E 028°39'0 0.0
2018-Mar-25 08:29N 44°10' E 028°39'0 0.0
2018-Mar-25 07:59N 44°10' E 028°39'0 0.0
2018-Mar-25 07:29N 44°10' E 028°39'  

Dump ship's entire track history